Airfield :







YOU CAN JOIN US ON...

 
LOGIN :

Register | Disclaimer

   EN    FR    IT 

 









Legend :    VFR   Marginal VFR   IFR   Intensive IFR   Very Intensive IFR
Visi :
Ceiling :
>= 8 km
>= 3000ft
5 to 8 km
1000 to 3000 ft
1500m to 5 km
500 to 1000 ft
800 to 1500m
200 to 500 ft
< 800m
< 200 ft
Symbols :   Thunderstorms  Fog  Heavy snow  Heavy precipitations  Wind > 20 kt






- Airport Elevation : 586 ft
- IATA code : YRJ


CYRJ - Roberval

CURRENT METAR :
  • 281600Z 26012KT 200V290 25SM FEW035 FEW160 SCT200 31/16 A2988 RMK CU2AS1CC1 AS TR SLP117 DENSITY ALT 2700FT

EXPIRED METARs :
  • 281500Z 20010G18KT 180V280 25SM FEW025 FEW200 31/16 A2990 RMK CU1CC2 CU TR SLP124 DENSITY ALT 2600FT
  • 281400Z 21008KT 200V260 25SM FEW140 SCT220 29/17 A2991 RMK AC1CC2 SLP128 DENSITY ALT 2400FT

TAF TAF CYRJ
Valid from the 28 at 14:00 until the 29 at 02:00 UTC


281330Z 2814/2902 23010KT P6SM FEW025 SCT080 BKN210
FM281800 22012G22KT P6SM BKN070
TEMPO 2818/2823 P6SM -SHRA
FM282300 21012KT P6SM SCT080 BKN150 RMK NXT FCST BY 282000Z
CZUL FIR / North America



MET'MAP, your aeronautical weather chart ! - Copyright ORBIFLY December 2007 - Disclaimer

ORBIFLY MET'MAP TEAM :

Programming & Development : Alexandra Zaïnal
Concept & original design : Baudouin d'Aumeries
Assistance for programming : Marc-Olivier Méhu
Technical & hardware support : Manuel Goepfert

Contact : metmap@orbifly.com




SOURCES & CREDITS :

   NOAA